Time,TemperatureF,DewpointF,PressureIn,WindDirection,WindDirectionDegrees,WindSpeedMPH,WindSpeedGustMPH,Humidity,HourlyPrecipIn,Conditions,Clouds,dailyrainin,SoftwareType,DateUTC
2013-08-18 00:01:00,75.8,39.5,29.77,South,172,0.0,3.0,27,0.00,,SKC,0.00,VWS V12.07,2013-08-18 07:01:00,
2013-08-18 01:01:00,75.3,40.0,29.76,SE,138,1.0,1.0,28,0.00,,SKC,0.00,VWS V12.07,2013-08-18 08:01:00,
2013-08-18 02:00:00,73.5,41.9,29.75,ESE,103,0.0,1.0,32,0.00,,SKC,0.00,VWS V12.07,2013-08-18 09:00:00,
2013-08-18 03:00:00,72.1,43.0,29.74,NE,49,3.0,13.0,35,0.00,,SKC,0.00,VWS V12.07,2013-08-18 10:00:00,
2013-08-18 04:01:00,68.3,44.3,29.74,NE,46,12.0,13.0,42,0.00,,SKC,0.00,VWS V12.07,2013-08-18 11:01:00,
2013-08-18 05:00:00,69.4,41.3,29.74,ENE,57,5.0,10.0,36,0.00,,SKC,0.00,VWS V12.07,2013-08-18 12:00:00,
2013-08-18 06:00:00,70.9,43.4,29.75,NE,51,6.0,13.0,37,0.00,,SKC,0.00,VWS V12.07,2013-08-18 13:00:00,
2013-08-18 07:01:00,72.1,45.1,29.76,ENE,59,6.0,7.0,38,0.00,,SKC,0.00,VWS V12.07,2013-08-18 14:01:00,
2013-08-18 08:00:00,74.2,49.0,29.77,ESE,103,9.0,13.0,41,0.00,,SKC,0.00,VWS V12.07,2013-08-18 15:00:00,
2013-08-18 09:01:00,76.3,50.9,29.77,East,101,3.0,4.0,41,0.00,,SKC,0.00,VWS V12.07,2013-08-18 16:01:00,
2013-08-18 10:01:00,77.9,50.3,29.78,East,83,4.0,15.0,38,0.00,,SKC,0.00,VWS V12.07,2013-08-18 17:01:00,
2013-08-18 11:01:00,79.8,48.2,29.78,ESE,105,4.0,14.0,33,0.00,,SKC,0.00,VWS V12.07,2013-08-18 18:01:00,
2013-08-18 12:01:00,80.7,49.0,29.77,ESE,119,3.0,3.0,33,0.00,,SKC,0.00,VWS V12.07,2013-08-18 19:01:00,
2013-08-18 13:01:00,82.0,48.4,29.76,ESE,112,1.0,7.0,31,0.00,,SKC,0.00,VWS V12.07,2013-08-18 20:01:00,
2013-08-18 14:01:00,81.2,50.2,29.77,East,99,0.0,15.0,34,0.00,,SKC,0.00,VWS V12.07,2013-08-18 21:01:00,
2013-08-18 15:00:00,77.7,51.5,29.76,SE,143,4.0,6.0,40,0.00,,SKC,0.00,VWS V12.07,2013-08-18 22:00:00,
2013-08-18 16:01:00,83.4,46.9,29.74,WNW,289,5.0,10.0,28,0.00,,SKC,0.00,VWS V12.07,2013-08-18 23:01:00,
2013-08-18 17:00:00,81.1,46.8,29.73,SSE,163,5.0,11.0,30,0.00,,SKC,0.00,VWS V12.07,2013-08-19 00:00:00,
2013-08-18 18:01:00,79.4,45.3,29.73,SSW,192,3.0,9.0,30,0.00,,SKC,0.00,VWS V12.07,2013-08-19 01:01:00,
2013-08-18 19:01:00,76.7,47.0,29.73,West,277,5.0,6.0,35,0.00,,SKC,0.00,VWS V12.07,2013-08-19 02:01:00,
2013-08-18 21:01:00,73.0,34.1,29.77,WSW,247,2.0,3.0,24,0.00,,SKC,0.00,VWS V12.07,2013-08-19 04:01:00,
2013-08-18 21:59:00,73.2,34.3,29.77,WSW,246,0.0,3.0,24,0.00,,SKC,0.00,VWS V12.07,2013-08-19 04:59:00,
2013-08-18 23:01:00,74.0,33.9,29.78,WSW,246,0.0,0.0,23,0.00,,SKC,0.00,VWS V12.07,2013-08-19 06:01:00,